sensor_id;sensor_type;location;lat;lon;timestamp;temperature;humidity
21425;DHT22;10873;51.132;16.848;2023-07-09T00:00:51;28.50;59.90
21425;DHT22;10873;51.132;16.848;2023-07-09T00:03:38;28.50;59.90
21425;DHT22;10873;51.132;16.848;2023-07-09T00:06:04;28.40;59.90
21425;DHT22;10873;51.132;16.848;2023-07-09T00:08:33;28.40;59.90
21425;DHT22;10873;51.132;16.848;2023-07-09T00:10:59;28.40;59.90
21425;DHT22;10873;51.132;16.848;2023-07-09T00:13:26;28.40;59.90
21425;DHT22;10873;51.132;16.848;2023-07-09T00:16:01;28.40;59.90
21425;DHT22;10873;51.132;16.848;2023-07-09T00:18:33;28.40;60.70
21425;DHT22;10873;51.132;16.848;2023-07-09T00:21:01;28.40;60.00
21425;DHT22;10873;51.132;16.848;2023-07-09T00:23:27;28.40;60.00
21425;DHT22;10873;51.132;16.848;2023-07-09T00:25:55;28.40;60.00
21425;DHT22;10873;51.132;16.848;2023-07-09T00:28:21;28.40;60.00
21425;DHT22;10873;51.132;16.848;2023-07-09T00:30:48;28.40;59.90
21425;DHT22;10873;51.132;16.848;2023-07-09T00:33:15;28.40;59.90
21425;DHT22;10873;51.132;16.848;2023-07-09T00:35:42;28.40;59.90
21425;DHT22;10873;51.132;16.848;2023-07-09T00:38:17;28.40;59.90
21425;DHT22;10873;51.132;16.848;2023-07-09T00:40:47;28.40;59.90
21425;DHT22;10873;51.132;16.848;2023-07-09T00:43:16;28.40;59.90
21425;DHT22;10873;51.132;16.848;2023-07-09T00:45:42;28.40;59.90
21425;DHT22;10873;51.132;16.848;2023-07-09T00:48:12;28.40;59.90
21425;DHT22;10873;51.132;16.848;2023-07-09T00:50:41;28.40;59.90
21425;DHT22;10873;51.132;16.848;2023-07-09T00:53:16;28.40;59.90
21425;DHT22;10873;51.132;16.848;2023-07-09T00:55:52;28.40;59.90
21425;DHT22;10873;51.132;16.848;2023-07-09T00:58:19;28.40;59.90
21425;DHT22;10873;51.132;16.848;2023-07-09T01:00:49;28.40;59.90
21425;DHT22;10873;51.132;16.848;2023-07-09T01:03:22;28.30;59.80
21425;DHT22;10873;51.132;16.848;2023-07-09T01:05:49;28.40;59.90
21425;DHT22;10873;51.132;16.848;2023-07-09T01:08:19;28.40;59.90
21425;DHT22;10873;51.132;16.848;2023-07-09T01:10:46;28.40;59.90
21425;DHT22;10873;51.132;16.848;2023-07-09T01:13:13;28.40;59.90
21425;DHT22;10873;51.132;16.848;2023-07-09T01:15:39;28.40;59.90
21425;DHT22;10873;51.132;16.848;2023-07-09T01:18:06;28.40;60.00
21425;DHT22;10873;51.132;16.848;2023-07-09T01:20:33;28.40;60.20
21425;DHT22;10873;51.132;16.848;2023-07-09T01:23:00;28.30;59.80
21425;DHT22;10873;51.132;16.848;2023-07-09T01:25:27;28.30;59.90
21425;DHT22;10873;51.132;16.848;2023-07-09T01:27:54;28.30;59.90
21425;DHT22;10873;51.132;16.848;2023-07-09T01:30:23;28.30;59.90
21425;DHT22;10873;51.132;16.848;2023-07-09T01:32:51;28.30;59.90
21425;DHT22;10873;51.132;16.848;2023-07-09T01:35:21;28.30;59.90
21425;DHT22;10873;51.132;16.848;2023-07-09T01:37:48;28.30;59.90
21425;DHT22;10873;51.132;16.848;2023-07-09T01:40:19;28.30;59.90
21425;DHT22;10873;51.132;16.848;2023-07-09T01:42:45;28.30;59.90
21425;DHT22;10873;51.132;16.848;2023-07-09T01:45:12;28.30;60.00
21425;DHT22;10873;51.132;16.848;2023-07-09T01:47:38;28.30;60.00
21425;DHT22;10873;51.132;16.848;2023-07-09T01:50:05;28.30;60.00
21425;DHT22;10873;51.132;16.848;2023-07-09T01:52:33;28.30;60.00
21425;DHT22;10873;51.132;16.848;2023-07-09T01:54:59;28.30;60.00
21425;DHT22;10873;51.132;16.848;2023-07-09T01:57:27;28.30;60.00
21425;DHT22;10873;51.132;16.848;2023-07-09T02:00:01;28.30;60.00
21425;DHT22;10873;51.132;16.848;2023-07-09T02:02:29;28.30;60.00
21425;DHT22;10873;51.132;16.848;2023-07-09T02:04:56;28.30;60.00
21425;DHT22;10873;51.132;16.848;2023-07-09T02:07:23;28.30;60.00
21425;DHT22;10873;51.132;16.848;2023-07-09T02:09:50;28.20;60.70
21425;DHT22;10873;51.132;16.848;2023-07-09T02:12:17;28.20;60.00
21425;DHT22;10873;51.132;16.848;2023-07-09T02:14:45;28.20;60.00
21425;DHT22;10873;51.132;16.848;2023-07-09T02:17:13;28.20;60.10
21425;DHT22;10873;51.132;16.848;2023-07-09T02:19:39;28.20;60.10
21425;DHT22;10873;51.132;16.848;2023-07-09T02:22:07;28.20;60.10
21425;DHT22;10873;51.132;16.848;2023-07-09T02:24:33;28.20;60.10
21425;DHT22;10873;51.132;16.848;2023-07-09T02:27:01;28.20;60.10
21425;DHT22;10873;51.132;16.848;2023-07-09T02:29:28;28.20;60.10
21425;DHT22;10873;51.132;16.848;2023-07-09T02:31:57;28.20;60.10
21425;DHT22;10873;51.132;16.848;2023-07-09T02:34:24;28.20;60.10
21425;DHT22;10873;51.132;16.848;2023-07-09T02:36:51;28.20;60.10
21425;DHT22;10873;51.132;16.848;2023-07-09T02:39:18;28.20;60.10
21425;DHT22;10873;51.132;16.848;2023-07-09T02:41:44;28.20;60.10
21425;DHT22;10873;51.132;16.848;2023-07-09T02:44:10;28.20;60.20
21425;DHT22;10873;51.132;16.848;2023-07-09T02:46:36;28.20;60.10
21425;DHT22;10873;51.132;16.848;2023-07-09T02:49:05;28.20;60.20
21425;DHT22;10873;51.132;16.848;2023-07-09T02:51:32;28.20;60.10
21425;DHT22;10873;51.132;16.848;2023-07-09T02:54:02;28.20;60.10
21425;DHT22;10873;51.132;16.848;2023-07-09T02:56:29;28.20;60.10
21425;DHT22;10873;51.132;16.848;2023-07-09T02:58:55;28.20;60.10
21425;DHT22;10873;51.132;16.848;2023-07-09T03:01:21;28.20;60.10
21425;DHT22;10873;51.132;16.848;2023-07-09T03:03:50;28.20;60.10
21425;DHT22;10873;51.132;16.848;2023-07-09T03:06:19;28.20;60.10
21425;DHT22;10873;51.132;16.848;2023-07-09T03:08:45;28.20;60.10
21425;DHT22;10873;51.132;16.848;2023-07-09T03:11:12;28.20;60.10
21425;DHT22;10873;51.132;16.848;2023-07-09T03:13:38;28.10;60.00
21425;DHT22;10873;51.132;16.848;2023-07-09T03:16:05;28.10;60.10
21425;DHT22;10873;51.132;16.848;2023-07-09T03:18:31;28.10;60.10
21425;DHT22;10873;51.132;16.848;2023-07-09T03:20:57;28.10;60.10
21425;DHT22;10873;51.132;16.848;2023-07-09T03:23:25;28.10;60.10
21425;DHT22;10873;51.132;16.848;2023-07-09T03:25:51;28.10;60.10
21425;DHT22;10873;51.132;16.848;2023-07-09T03:28:17;28.10;60.20
21425;DHT22;10873;51.132;16.848;2023-07-09T03:30:45;28.10;60.20
21425;DHT22;10873;51.132;16.848;2023-07-09T03:33:12;28.10;60.20
21425;DHT22;10873;51.132;16.848;2023-07-09T03:35:39;28.10;60.20
21425;DHT22;10873;51.132;16.848;2023-07-09T03:38:05;28.10;60.30
21425;DHT22;10873;51.132;16.848;2023-07-09T03:40:32;28.10;60.30
21425;DHT22;10873;51.132;16.848;2023-07-09T03:42:59;28.10;60.30
21425;DHT22;10873;51.132;16.848;2023-07-09T03:45:25;28.10;60.40
21425;DHT22;10873;51.132;16.848;2023-07-09T03:47:51;28.10;61.20
21425;DHT22;10873;51.132;16.848;2023-07-09T03:50:18;28.10;60.40
21425;DHT22;10873;51.132;16.848;2023-07-09T03:52:44;28.10;60.40
21425;DHT22;10873;51.132;16.848;2023-07-09T03:55:10;28.10;60.40
21425;DHT22;10873;51.132;16.848;2023-07-09T03:57:37;28.10;60.50
21425;DHT22;10873;51.132;16.848;2023-07-09T04:00:05;28.10;60.60
21425;DHT22;10873;51.132;16.848;2023-07-09T04:02:31;28.10;60.60
21425;DHT22;10873;51.132;16.848;2023-07-09T04:04:57;28.10;60.60
21425;DHT22;10873;51.132;16.848;2023-07-09T04:07:23;28.10;60.70
21425;DHT22;10873;51.132;16.848;2023-07-09T04:09:49;28.10;60.70
21425;DHT22;10873;51.132;16.848;2023-07-09T04:12:15;28.10;60.80
21425;DHT22;10873;51.132;16.848;2023-07-09T04:14:43;28.10;60.70
21425;DHT22;10873;51.132;16.848;2023-07-09T04:17:09;28.10;60.70
21425;DHT22;10873;51.132;16.848;2023-07-09T04:19:35;28.10;60.70
21425;DHT22;10873;51.132;16.848;2023-07-09T04:22:01;28.10;60.70
21425;DHT22;10873;51.132;16.848;2023-07-09T04:24:27;28.10;60.70
21425;DHT22;10873;51.132;16.848;2023-07-09T04:26:53;28.10;60.70
21425;DHT22;10873;51.132;16.848;2023-07-09T04:29:22;28.10;60.70
21425;DHT22;10873;51.132;16.848;2023-07-09T04:31:49;28.10;60.70
21425;DHT22;10873;51.132;16.848;2023-07-09T04:34:15;28.10;60.70
21425;DHT22;10873;51.132;16.848;2023-07-09T04:36:41;28.10;60.60
21425;DHT22;10873;51.132;16.848;2023-07-09T04:39:07;28.10;60.30
21425;DHT22;10873;51.132;16.848;2023-07-09T04:41:33;28.10;60.00
21425;DHT22;10873;51.132;16.848;2023-07-09T04:43:59;28.10;59.90
21425;DHT22;10873;51.132;16.848;2023-07-09T04:46:25;28.10;59.60
21425;DHT22;10873;51.132;16.848;2023-07-09T04:48:53;28.10;59.50
21425;DHT22;10873;51.132;16.848;2023-07-09T04:51:19;28.20;59.50
21425;DHT22;10873;51.132;16.848;2023-07-09T04:53:45;28.10;59.50
21425;DHT22;10873;51.132;16.848;2023-07-09T04:56:11;28.20;59.50
21425;DHT22;10873;51.132;16.848;2023-07-09T04:58:37;28.10;59.50
21425;DHT22;10873;51.132;16.848;2023-07-09T05:01:03;28.20;59.50
21425;DHT22;10873;51.132;16.848;2023-07-09T05:03:29;28.20;59.50
21425;DHT22;10873;51.132;16.848;2023-07-09T05:05:56;28.20;59.40
21425;DHT22;10873;51.132;16.848;2023-07-09T05:08:23;28.20;59.50
21425;DHT22;10873;51.132;16.848;2023-07-09T05:10:50;28.20;59.40
21425;DHT22;10873;51.132;16.848;2023-07-09T05:13:17;28.20;59.40
21425;DHT22;10873;51.132;16.848;2023-07-09T05:15:45;28.20;59.40
21425;DHT22;10873;51.132;16.848;2023-07-09T05:18:13;28.20;59.40
21425;DHT22;10873;51.132;16.848;2023-07-09T05:20:40;28.20;59.40
21425;DHT22;10873;51.132;16.848;2023-07-09T05:23:08;28.20;59.40
21425;DHT22;10873;51.132;16.848;2023-07-09T05:25:35;28.20;59.50
21425;DHT22;10873;51.132;16.848;2023-07-09T05:28:01;28.20;59.50
21425;DHT22;10873;51.132;16.848;2023-07-09T05:30:27;28.20;59.60
21425;DHT22;10873;51.132;16.848;2023-07-09T05:32:53;28.20;59.60
21425;DHT22;10873;51.132;16.848;2023-07-09T05:35:21;28.20;59.70
21425;DHT22;10873;51.132;16.848;2023-07-09T05:37:48;28.20;59.80
21425;DHT22;10873;51.132;16.848;2023-07-09T05:40:15;28.20;59.90
21425;DHT22;10873;51.132;16.848;2023-07-09T05:42:41;28.20;60.00
21425;DHT22;10873;51.132;16.848;2023-07-09T05:45:08;28.20;60.10
21425;DHT22;10873;51.132;16.848;2023-07-09T05:47:34;28.20;60.20
21425;DHT22;10873;51.132;16.848;2023-07-09T05:50:00;28.10;60.20
21425;DHT22;10873;51.132;16.848;2023-07-09T05:52:28;28.10;60.30
21425;DHT22;10873;51.132;16.848;2023-07-09T05:54:55;28.10;60.30
21425;DHT22;10873;51.132;16.848;2023-07-09T05:57:23;28.10;60.40
21425;DHT22;10873;51.132;16.848;2023-07-09T05:59:48;28.10;60.50
21425;DHT22;10873;51.132;16.848;2023-07-09T06:02:18;28.10;60.60
21425;DHT22;10873;51.132;16.848;2023-07-09T06:04:45;28.10;60.70
21425;DHT22;10873;51.132;16.848;2023-07-09T06:07:11;28.10;60.90
21425;DHT22;10873;51.132;16.848;2023-07-09T06:09:39;28.10;61.00
21425;DHT22;10873;51.132;16.848;2023-07-09T06:12:06;28.10;61.10
21425;DHT22;10873;51.132;16.848;2023-07-09T06:14:34;28.10;61.20
21425;DHT22;10873;51.132;16.848;2023-07-09T06:17:00;28.10;61.20
21425;DHT22;10873;51.132;16.848;2023-07-09T06:19:27;28.10;61.40
21425;DHT22;10873;51.132;16.848;2023-07-09T06:21:53;28.10;61.50
21425;DHT22;10873;51.132;16.848;2023-07-09T06:24:19;28.10;61.60
21425;DHT22;10873;51.132;16.848;2023-07-09T06:26:45;28.10;61.70
21425;DHT22;10873;51.132;16.848;2023-07-09T06:29:11;28.10;61.80
21425;DHT22;10873;51.132;16.848;2023-07-09T06:31:38;28.10;61.80
21425;DHT22;10873;51.132;16.848;2023-07-09T06:34:06;28.10;61.80
21425;DHT22;10873;51.132;16.848;2023-07-09T06:36:33;28.10;61.90
21425;DHT22;10873;51.132;16.848;2023-07-09T06:38:59;28.10;61.90
21425;DHT22;10873;51.132;16.848;2023-07-09T06:41:25;28.10;61.80
21425;DHT22;10873;51.132;16.848;2023-07-09T06:43:51;28.10;61.90
21425;DHT22;10873;51.132;16.848;2023-07-09T06:46:18;28.10;61.90
21425;DHT22;10873;51.132;16.848;2023-07-09T06:48:46;28.20;61.90
21425;DHT22;10873;51.132;16.848;2023-07-09T06:51:13;28.20;61.90
21425;DHT22;10873;51.132;16.848;2023-07-09T06:53:39;28.10;61.90
21425;DHT22;10873;51.132;16.848;2023-07-09T06:56:06;28.20;61.90
21425;DHT22;10873;51.132;16.848;2023-07-09T06:58:32;28.20;61.90
21425;DHT22;10873;51.132;16.848;2023-07-09T07:01:01;28.20;61.80
21425;DHT22;10873;51.132;16.848;2023-07-09T07:03:29;28.20;61.80
21425;DHT22;10873;51.132;16.848;2023-07-09T07:05:57;28.20;61.80
21425;DHT22;10873;51.132;16.848;2023-07-09T07:08:24;28.20;61.90
21425;DHT22;10873;51.132;16.848;2023-07-09T07:10:54;28.20;61.90
21425;DHT22;10873;51.132;16.848;2023-07-09T07:13:27;28.20;62.00
21425;DHT22;10873;51.132;16.848;2023-07-09T07:15:53;28.20;62.00
21425;DHT22;10873;51.132;16.848;2023-07-09T07:18:19;28.20;62.00
21425;DHT22;10873;51.132;16.848;2023-07-09T07:20:45;28.20;62.10
21425;DHT22;10873;51.132;16.848;2023-07-09T07:23:12;28.20;62.20
21425;DHT22;10873;51.132;16.848;2023-07-09T07:25:39;28.20;62.30
21425;DHT22;10873;51.132;16.848;2023-07-09T07:28:04;28.20;62.30
21425;DHT22;10873;51.132;16.848;2023-07-09T07:30:31;28.20;62.30
21425;DHT22;10873;51.132;16.848;2023-07-09T07:32:56;28.20;62.40
21425;DHT22;10873;51.132;16.848;2023-07-09T07:35:23;28.20;62.50
21425;DHT22;10873;51.132;16.848;2023-07-09T07:37:49;28.30;62.70
21425;DHT22;10873;51.132;16.848;2023-07-09T07:40:16;28.20;62.90
21425;DHT22;10873;51.132;16.848;2023-07-09T07:42:42;28.30;63.00
21425;DHT22;10873;51.132;16.848;2023-07-09T07:45:09;28.20;62.90
21425;DHT22;10873;51.132;16.848;2023-07-09T07:47:35;28.20;62.90
21425;DHT22;10873;51.132;16.848;2023-07-09T07:50:02;28.30;62.90
21425;DHT22;10873;51.132;16.848;2023-07-09T07:52:28;28.30;62.80
21425;DHT22;10873;51.132;16.848;2023-07-09T07:54:54;28.30;62.60
21425;DHT22;10873;51.132;16.848;2023-07-09T07:57:24;28.30;62.60
21425;DHT22;10873;51.132;16.848;2023-07-09T07:59:50;28.30;62.50
21425;DHT22;10873;51.132;16.848;2023-07-09T08:02:16;28.30;62.40
21425;DHT22;10873;51.132;16.848;2023-07-09T08:04:43;28.30;62.40
21425;DHT22;10873;51.132;16.848;2023-07-09T08:07:09;28.30;62.20
21425;DHT22;10873;51.132;16.848;2023-07-09T08:09:36;28.40;62.20
21425;DHT22;10873;51.132;16.848;2023-07-09T08:14:36;28.40;62.10
21425;DHT22;10873;51.132;16.848;2023-07-09T08:17:02;28.40;62.10
21425;DHT22;10873;51.132;16.848;2023-07-09T08:19:29;28.40;62.00
21425;DHT22;10873;51.132;16.848;2023-07-09T08:21:55;28.40;61.90
21425;DHT22;10873;51.132;16.848;2023-07-09T08:24:21;28.40;61.90
21425;DHT22;10873;51.132;16.848;2023-07-09T08:26:46;28.40;61.90
21425;DHT22;10873;51.132;16.848;2023-07-09T08:29:13;28.40;61.90
21425;DHT22;10873;51.132;16.848;2023-07-09T08:31:40;28.40;62.00
21425;DHT22;10873;51.132;16.848;2023-07-09T08:34:08;28.40;62.70
21425;DHT22;10873;51.132;16.848;2023-07-09T08:36:34;28.40;62.00
21425;DHT22;10873;51.132;16.848;2023-07-09T08:39:01;28.40;62.00
21425;DHT22;10873;51.132;16.848;2023-07-09T08:41:37;28.40;62.00
21425;DHT22;10873;51.132;16.848;2023-07-09T08:44:17;28.40;62.00
21425;DHT22;10873;51.132;16.848;2023-07-09T08:46:54;28.40;62.00
21425;DHT22;10873;51.132;16.848;2023-07-09T08:49:29;28.40;62.90
21425;DHT22;10873;51.132;16.848;2023-07-09T08:51:57;28.40;62.30
21425;DHT22;10873;51.132;16.848;2023-07-09T08:54:26;28.40;62.40
21425;DHT22;10873;51.132;16.848;2023-07-09T08:56:53;28.40;62.40
21425;DHT22;10873;51.132;16.848;2023-07-09T08:59:21;28.40;62.50
21425;DHT22;10873;51.132;16.848;2023-07-09T09:01:52;28.40;62.60
21425;DHT22;10873;51.132;16.848;2023-07-09T09:04:25;28.40;62.60
21425;DHT22;10873;51.132;16.848;2023-07-09T09:07:01;28.40;62.60
21425;DHT22;10873;51.132;16.848;2023-07-09T09:09:33;28.40;62.60
21425;DHT22;10873;51.132;16.848;2023-07-09T09:12:12;28.40;62.60
21425;DHT22;10873;51.132;16.848;2023-07-09T09:14:42;28.40;62.60
21425;DHT22;10873;51.132;16.848;2023-07-09T09:17:13;28.40;62.60
21425;DHT22;10873;51.132;16.848;2023-07-09T09:19:46;28.40;62.50
21425;DHT22;10873;51.132;16.848;2023-07-09T09:22:15;28.40;62.60
21425;DHT22;10873;51.132;16.848;2023-07-09T09:24:53;28.40;62.60
21425;DHT22;10873;51.132;16.848;2023-07-09T09:27:21;28.40;62.50
21425;DHT22;10873;51.132;16.848;2023-07-09T09:29:47;28.40;62.60
21425;DHT22;10873;51.132;16.848;2023-07-09T09:32:22;28.40;62.70
21425;DHT22;10873;51.132;16.848;2023-07-09T09:34:48;28.40;62.80
21425;DHT22;10873;51.132;16.848;2023-07-09T09:37:24;28.40;63.00
21425;DHT22;10873;51.132;16.848;2023-07-09T09:39:51;28.40;63.10
21425;DHT22;10873;51.132;16.848;2023-07-09T09:42:17;28.40;63.30
21425;DHT22;10873;51.132;16.848;2023-07-09T09:44:44;28.40;63.50
21425;DHT22;10873;51.132;16.848;2023-07-09T09:47:11;28.40;63.50
21425;DHT22;10873;51.132;16.848;2023-07-09T09:49:43;28.40;63.50
21425;DHT22;10873;51.132;16.848;2023-07-09T09:52:13;28.50;63.60
21425;DHT22;10873;51.132;16.848;2023-07-09T09:54:41;28.40;63.40
21425;DHT22;10873;51.132;16.848;2023-07-09T09:57:16;28.40;63.30
21425;DHT22;10873;51.132;16.848;2023-07-09T09:59:44;28.50;63.50
21425;DHT22;10873;51.132;16.848;2023-07-09T10:02:16;28.50;63.50
21425;DHT22;10873;51.132;16.848;2023-07-09T10:04:44;28.50;63.60
21425;DHT22;10873;51.132;16.848;2023-07-09T10:07:16;28.50;63.70
21425;DHT22;10873;51.132;16.848;2023-07-09T10:09:47;28.50;63.80
21425;DHT22;10873;51.132;16.848;2023-07-09T10:12:26;28.40;63.70
21425;DHT22;10873;51.132;16.848;2023-07-09T10:14:58;28.50;63.70
21425;DHT22;10873;51.132;16.848;2023-07-09T10:17:35;28.50;63.70
21425;DHT22;10873;51.132;16.848;2023-07-09T10:20:08;28.50;63.60
21425;DHT22;10873;51.132;16.848;2023-07-09T10:22:43;28.50;63.50
21425;DHT22;10873;51.132;16.848;2023-07-09T10:25:31;28.50;63.50
21425;DHT22;10873;51.132;16.848;2023-07-09T10:28:30;28.60;63.70
21425;DHT22;10873;51.132;16.848;2023-07-09T10:31:02;28.60;63.60
21425;DHT22;10873;51.132;16.848;2023-07-09T10:33:41;28.60;63.70
21425;DHT22;10873;51.132;16.848;2023-07-09T10:36:26;28.60;63.80
21425;DHT22;10873;51.132;16.848;2023-07-09T10:39:00;28.60;63.80
21425;DHT22;10873;51.132;16.848;2023-07-09T10:41:28;28.60;63.90
21425;DHT22;10873;51.132;16.848;2023-07-09T10:44:00;28.60;63.90
21425;DHT22;10873;51.132;16.848;2023-07-09T10:46:31;28.60;63.90
21425;DHT22;10873;51.132;16.848;2023-07-09T10:48:58;28.60;63.90
21425;DHT22;10873;51.132;16.848;2023-07-09T10:51:31;28.60;63.80
21425;DHT22;10873;51.132;16.848;2023-07-09T10:54:02;28.60;63.80
21425;DHT22;10873;51.132;16.848;2023-07-09T10:56:34;28.70;63.80
21425;DHT22;10873;51.132;16.848;2023-07-09T10:59:11;28.70;63.80
21425;DHT22;10873;51.132;16.848;2023-07-09T11:01:41;28.60;63.80
21425;DHT22;10873;51.132;16.848;2023-07-09T11:04:13;28.70;63.90
21425;DHT22;10873;51.132;16.848;2023-07-09T11:06:46;28.70;63.80
21425;DHT22;10873;51.132;16.848;2023-07-09T11:09:21;28.70;63.60
21425;DHT22;10873;51.132;16.848;2023-07-09T11:11:50;28.70;63.40
21425;DHT22;10873;51.132;16.848;2023-07-09T11:14:26;28.80;63.10
21425;DHT22;10873;51.132;16.848;2023-07-09T11:16:55;28.80;63.00
21425;DHT22;10873;51.132;16.848;2023-07-09T11:19:22;28.80;62.70
21425;DHT22;10873;51.132;16.848;2023-07-09T11:22:15;28.90;62.50
21425;DHT22;10873;51.132;16.848;2023-07-09T11:24:46;28.90;62.40
21425;DHT22;10873;51.132;16.848;2023-07-09T11:27:22;28.90;62.00
21425;DHT22;10873;51.132;16.848;2023-07-09T11:29:56;28.90;61.80
21425;DHT22;10873;51.132;16.848;2023-07-09T11:32:23;28.90;61.50
21425;DHT22;10873;51.132;16.848;2023-07-09T11:34:49;28.90;61.20
21425;DHT22;10873;51.132;16.848;2023-07-09T11:37:16;28.90;61.00
21425;DHT22;10873;51.132;16.848;2023-07-09T11:39:45;29.00;60.90
21425;DHT22;10873;51.132;16.848;2023-07-09T11:42:30;29.00;60.70
21425;DHT22;10873;51.132;16.848;2023-07-09T11:45:08;29.00;60.50
21425;DHT22;10873;51.132;16.848;2023-07-09T11:47:39;28.90;60.10
21425;DHT22;10873;51.132;16.848;2023-07-09T11:50:16;29.00;60.00
21425;DHT22;10873;51.132;16.848;2023-07-09T11:52:52;29.00;59.80
21425;DHT22;10873;51.132;16.848;2023-07-09T11:55:27;29.00;59.70
21425;DHT22;10873;51.132;16.848;2023-07-09T11:57:55;29.00;59.50
21425;DHT22;10873;51.132;16.848;2023-07-09T12:00:22;29.00;59.30
21425;DHT22;10873;51.132;16.848;2023-07-09T12:02:50;29.00;59.20
21425;DHT22;10873;51.132;16.848;2023-07-09T12:05:20;29.00;59.10
21425;DHT22;10873;51.132;16.848;2023-07-09T12:07:50;29.00;58.90
21425;DHT22;10873;51.132;16.848;2023-07-09T12:10:20;29.00;58.80
21425;DHT22;10873;51.132;16.848;2023-07-09T12:12:47;29.00;58.70
21425;DHT22;10873;51.132;16.848;2023-07-09T12:15:18;29.00;58.60
21425;DHT22;10873;51.132;16.848;2023-07-09T12:17:54;29.00;58.40
21425;DHT22;10873;51.132;16.848;2023-07-09T12:20:20;29.00;58.30
21425;DHT22;10873;51.132;16.848;2023-07-09T12:22:47;29.00;58.20
21425;DHT22;10873;51.132;16.848;2023-07-09T12:25:22;29.00;58.10
21425;DHT22;10873;51.132;16.848;2023-07-09T12:27:49;29.00;58.10
21425;DHT22;10873;51.132;16.848;2023-07-09T12:30:16;29.00;58.00
21425;DHT22;10873;51.132;16.848;2023-07-09T12:32:44;29.00;57.90
21425;DHT22;10873;51.132;16.848;2023-07-09T12:35:13;29.00;58.40
21425;DHT22;10873;51.132;16.848;2023-07-09T12:37:42;29.00;58.00
21425;DHT22;10873;51.132;16.848;2023-07-09T12:40:12;29.00;57.60
21425;DHT22;10873;51.132;16.848;2023-07-09T12:42:42;29.00;57.50
21425;DHT22;10873;51.132;16.848;2023-07-09T12:45:14;29.00;57.30
21425;DHT22;10873;51.132;16.848;2023-07-09T12:47:41;29.00;57.30
21425;DHT22;10873;51.132;16.848;2023-07-09T12:50:18;29.00;57.20
21425;DHT22;10873;51.132;16.848;2023-07-09T12:52:46;29.00;57.00
21425;DHT22;10873;51.132;16.848;2023-07-09T12:55:20;29.00;56.70
21425;DHT22;10873;51.132;16.848;2023-07-09T12:57:48;29.00;56.60
21425;DHT22;10873;51.132;16.848;2023-07-09T13:00:14;29.00;56.60
21425;DHT22;10873;51.132;16.848;2023-07-09T13:02:41;29.00;56.40
21425;DHT22;10873;51.132;16.848;2023-07-09T13:05:17;29.00;56.30
21425;DHT22;10873;51.132;16.848;2023-07-09T13:07:46;29.00;56.30
21425;DHT22;10873;51.132;16.848;2023-07-09T13:10:16;29.00;56.20
21425;DHT22;10873;51.132;16.848;2023-07-09T13:12:46;29.00;56.20
21425;DHT22;10873;51.132;16.848;2023-07-09T13:15:23;29.00;56.20
21425;DHT22;10873;51.132;16.848;2023-07-09T13:17:50;29.00;56.20
21425;DHT22;10873;51.132;16.848;2023-07-09T13:20:22;29.00;56.10
21425;DHT22;10873;51.132;16.848;2023-07-09T13:22:48;29.00;56.20
21425;DHT22;10873;51.132;16.848;2023-07-09T13:25:14;29.00;56.40
21425;DHT22;10873;51.132;16.848;2023-07-09T13:27:40;29.00;56.50
21425;DHT22;10873;51.132;16.848;2023-07-09T13:30:08;29.00;56.60
21425;DHT22;10873;51.132;16.848;2023-07-09T13:32:36;29.00;56.70
21425;DHT22;10873;51.132;16.848;2023-07-09T13:35:02;29.00;56.80
21425;DHT22;10873;51.132;16.848;2023-07-09T13:37:30;29.00;56.80
21425;DHT22;10873;51.132;16.848;2023-07-09T13:39:55;29.00;56.80
21425;DHT22;10873;51.132;16.848;2023-07-09T13:42:22;29.00;56.80
21425;DHT22;10873;51.132;16.848;2023-07-09T13:44:49;29.00;56.80
21425;DHT22;10873;51.132;16.848;2023-07-09T13:47:18;29.00;56.70
21425;DHT22;10873;51.132;16.848;2023-07-09T13:49:46;29.00;56.70
21425;DHT22;10873;51.132;16.848;2023-07-09T13:52:16;29.00;56.60
21425;DHT22;10873;51.132;16.848;2023-07-09T13:54:42;29.00;56.60
21425;DHT22;10873;51.132;16.848;2023-07-09T13:57:13;29.00;57.20
21425;DHT22;10873;51.132;16.848;2023-07-09T13:59:40;29.00;56.40
21425;DHT22;10873;51.132;16.848;2023-07-09T14:02:19;29.00;56.30
21425;DHT22;10873;51.132;16.848;2023-07-09T14:04:47;29.00;56.30
21425;DHT22;10873;51.132;16.848;2023-07-09T14:07:23;29.10;56.20
21425;DHT22;10873;51.132;16.848;2023-07-09T14:09:50;29.10;56.00
21425;DHT22;10873;51.132;16.848;2023-07-09T14:12:16;29.10;55.90
21425;DHT22;10873;51.132;16.848;2023-07-09T14:14:42;29.10;55.70
21425;DHT22;10873;51.132;16.848;2023-07-09T14:17:12;29.20;55.60
21425;DHT22;10873;51.132;16.848;2023-07-09T14:19:38;29.10;55.50
21425;DHT22;10873;51.132;16.848;2023-07-09T14:22:21;29.20;55.40
21425;DHT22;10873;51.132;16.848;2023-07-09T14:24:49;29.20;55.30
21425;DHT22;10873;51.132;16.848;2023-07-09T14:27:15;29.20;55.20
21425;DHT22;10873;51.132;16.848;2023-07-09T14:29:41;29.20;55.10
21425;DHT22;10873;51.132;16.848;2023-07-09T14:32:31;29.20;55.10
21425;DHT22;10873;51.132;16.848;2023-07-09T14:34:58;29.20;55.00
21425;DHT22;10873;51.132;16.848;2023-07-09T14:37:26;29.30;55.00
21425;DHT22;10873;51.132;16.848;2023-07-09T14:39:52;29.20;54.90
21425;DHT22;10873;51.132;16.848;2023-07-09T14:42:18;29.30;55.00
21425;DHT22;10873;51.132;16.848;2023-07-09T14:44:44;29.20;54.80
21425;DHT22;10873;51.132;16.848;2023-07-09T14:47:14;29.30;54.90
21425;DHT22;10873;51.132;16.848;2023-07-09T14:49:41;29.30;54.90
21425;DHT22;10873;51.132;16.848;2023-07-09T14:52:12;29.30;54.90
21425;DHT22;10873;51.132;16.848;2023-07-09T14:54:40;29.30;54.80
21425;DHT22;10873;51.132;16.848;2023-07-09T14:57:13;29.30;54.80
21425;DHT22;10873;51.132;16.848;2023-07-09T14:59:41;29.20;54.70
21425;DHT22;10873;51.132;16.848;2023-07-09T15:02:22;29.30;54.80
21425;DHT22;10873;51.132;16.848;2023-07-09T15:04:49;29.30;54.80
21425;DHT22;10873;51.132;16.848;2023-07-09T15:07:16;29.30;54.60
21425;DHT22;10873;51.132;16.848;2023-07-09T15:09:43;29.30;54.80
21425;DHT22;10873;51.132;16.848;2023-07-09T15:12:16;29.30;54.70
21425;DHT22;10873;51.132;16.848;2023-07-09T15:14:43;29.30;54.60
21425;DHT22;10873;51.132;16.848;2023-07-09T15:17:10;29.30;54.50
21425;DHT22;10873;51.132;16.848;2023-07-09T15:19:37;29.30;54.50
21425;DHT22;10873;51.132;16.848;2023-07-09T15:22:04;29.30;54.40
21425;DHT22;10873;51.132;16.848;2023-07-09T15:24:32;29.40;54.20
21425;DHT22;10873;51.132;16.848;2023-07-09T15:27:01;29.40;54.20